Time;durP1;ratioP1;P1;durP2;ratioP2;P2;SDS_P1;SDS_P2;PMS_P1;PMS_P2;Temp;Humidity;BMP_temperature;BMP_pressure;BME280_temperature;BME280_humidity;BME280_pressure;Samples;Min_cycle;Max_cycle;Signal;HPM_P1;HPM_P2
2022/01/18 00:00:40;;;;;;;0.00;0.00;;;5.40;85.00;;;;;;4166511;28;20044;-57
2022/01/18 00:03:05;;;;;;;0.00;0.00;;;5.30;85.30;;;;;;4180280;28;20049;-60
2022/01/18 00:05:27;;;;;;;0.00;0.00;;;5.30;85.60;;;;;;4166585;28;20159;-58
2022/01/18 00:07:50;;;;;;;0.00;0.00;;;5.30;85.70;;;;;;4179972;28;20041;-59
2022/01/18 00:10:13;;;;;;;0.00;0.00;;;5.30;85.90;;;;;;4179600;28;20116;-58
2022/01/18 00:16:09;;;;;;;0.00;0.00;;;5.30;86.10;;;;;;4166185;28;20057;-55
2022/01/18 00:18:04;;;;;;;0.00;0.00;;;5.30;86.10;;;;;;4179869;28;20144;-57
2022/01/18 00:23:00;;;;;;;0.00;0.00;;;5.30;86.20;;;;;;4163445;28;20099;-54
2022/01/18 00:25:23;;;;;;;0.00;0.00;;;5.30;86.10;;;;;;4162998;28;20103;-54
2022/01/18 00:27:45;;;;;;;0.00;0.00;;;5.40;86.10;;;;;;4177203;28;20106;-54
2022/01/18 00:35:16;;;;;;;0.00;0.00;;;5.30;86.10;;;;;;4163180;28;20069;-55
2022/01/18 00:37:50;;;;;;;0.00;0.00;;;5.10;86.60;;;;;;4163275;28;20140;-54
2022/01/18 00:40:12;;;;;;;0.00;0.00;;;4.80;87.50;;;;;;4162702;28;20052;-54
2022/01/18 00:42:35;;;;;;;0.00;0.00;;;4.70;88.20;;;;;;4163033;28;20136;-53
2022/01/18 00:44:57;;;;;;;0.00;0.00;;;4.70;88.40;;;;;;4163096;28;20489;-55
2022/01/18 00:47:20;;;;;;;0.00;0.00;;;4.70;88.30;;;;;;4163015;28;20084;-51
2022/01/18 00:49:45;;;;;;;0.00;0.00;;;4.80;88.30;;;;;;4162869;28;20042;-58
2022/01/18 00:52:08;;;;;;;0.00;0.00;;;4.80;87.90;;;;;;4162851;28;20046;-53
2022/01/18 00:54:38;;;;;;;0.00;0.00;;;4.90;87.80;;;;;;4148694;28;20045;-55
2022/01/18 00:57:01;;;;;;;0.00;0.00;;;4.90;87.70;;;;;;4156050;28;20092;-53
2022/01/18 00:59:23;;;;;;;0.00;0.00;;;4.90;87.50;;;;;;4156341;28;20596;-53
2022/01/18 01:01:46;;;;;;;0.00;0.00;;;4.90;87.40;;;;;;4162652;28;20113;-56
2022/01/18 01:04:09;;;;;;;0.00;0.00;;;5.00;87.30;;;;;;4162384;28;20592;-55
2022/01/18 01:06:35;;;;;;;0.00;0.00;;;5.00;87.10;;;;;;4163223;28;20049;-59
2022/01/18 01:08:58;;;;;;;0.00;0.00;;;5.00;86.90;;;;;;4142542;28;20436;-53
2022/01/18 01:11:23;;;;;;;0.00;0.00;;;5.00;86.70;;;;;;4156715;28;20076;-52
2022/01/18 01:13:49;;;;;;;0.00;0.00;;;5.00;86.80;;;;;;4163442;28;20124;-54
2022/01/18 01:46:17;;;;;;;;;;;4.80;87.50;;;;;;4162214;28;20057;-57
2022/01/18 01:48:57;;;;;;;0.00;0.00;;;4.70;87.40;;;;;;4162283;28;19931;-53
2022/01/18 01:51:30;;;;;;;0.00;0.00;;;4.80;87.30;;;;;;4162877;28;20053;-54
2022/01/18 01:54:07;;;;;;;0.00;0.00;;;4.80;87.50;;;;;;4162980;28;20062;-56
2022/01/18 01:56:31;;;;;;;0.00;0.00;;;4.80;87.60;;;;;;4161541;28;20042;-54
2022/01/18 01:58:54;;;;;;;0.00;0.00;;;4.70;87.60;;;;;;4162114;28;20053;-52
2022/01/18 02:01:23;;;;;;;0.00;0.00;;;4.60;87.80;;;;;;4161607;28;20049;-53
2022/01/18 02:03:46;;;;;;;0.00;0.00;;;4.60;88.10;;;;;;4162972;28;20047;-54
2022/01/18 02:06:17;;;;;;;0.00;0.00;;;4.60;88.40;;;;;;4162506;28;20057;-55
2022/01/18 02:08:54;;;;;;;0.00;0.00;;;4.50;88.30;;;;;;4162805;28;20144;-54
2022/01/18 02:11:20;;;;;;;0.00;0.00;;;4.50;88.70;;;;;;4161568;28;20045;-53
2022/01/18 02:13:53;;;;;;;0.00;0.00;;;4.50;88.60;;;;;;4162904;28;20052;-55
2022/01/18 02:22:01;;;;;;;0.00;0.00;;;4.50;88.30;;;;;;4161276;28;20061;-58
2022/01/18 02:24:24;;;;;;;0.00;0.00;;;4.50;87.90;;;;;;4161154;28;20069;-57
2022/01/18 02:26:46;;;;;;;0.00;0.00;;;4.50;87.70;;;;;;4161184;28;20054;-57
2022/01/18 02:29:10;;;;;;;0.00;0.00;;;4.50;87.60;;;;;;4161702;28;20060;-56
2022/01/18 02:31:33;;;;;;;0.00;0.00;;;4.50;87.50;;;;;;4161411;28;20065;-57
2022/01/18 02:34:12;;;;;;;0.00;0.00;;;4.50;87.40;;;;;;4146996;28;20058;-59
2022/01/18 02:36:34;;;;;;;0.00;0.00;;;4.50;87.30;;;;;;4175930;28;20048;-54
2022/01/18 02:38:56;;;;;;;0.00;0.00;;;4.40;87.10;;;;;;4161530;28;20408;-50
2022/01/18 02:41:29;;;;;;;0.00;0.00;;;4.40;87.10;;;;;;4134091;28;20096;-53
2022/01/18 02:43:55;;;;;;;0.00;0.00;;;4.40;87.00;;;;;;4161692;28;20403;-57
2022/01/18 02:46:18;;;;;;;0.00;0.00;;;4.40;87.10;;;;;;4118647;28;20054;-56
2022/01/18 02:48:42;;;;;;;0.00;0.00;;;4.40;87.10;;;;;;4147106;28;20471;-56
2022/01/18 02:51:05;;;;;;;0.00;0.00;;;4.40;87.10;;;;;;4155829;28;20052;-59
2022/01/18 02:53:31;;;;;;;0.00;0.00;;;4.30;87.00;;;;;;4165006;28;20046;-53
2022/01/18 02:55:56;;;;;;;0.00;0.00;;;4.30;87.00;;;;;;4164832;28;20095;-59
2022/01/18 02:58:29;;;;;;;0.00;0.00;;;4.20;86.90;;;;;;4164294;28;20049;-59
2022/01/18 03:03:34;;;;;;;0.00;0.00;;;4.20;86.90;;;;;;4175533;28;20049;-57
2022/01/18 03:06:02;;;;;;;0.00;0.00;;;4.20;86.60;;;;;;4166166;28;20045;-58
2022/01/18 03:08:25;;;;;;;0.00;0.00;;;4.20;86.70;;;;;;4180573;28;20079;-56
2022/01/18 03:10:47;;;;;;;0.00;0.00;;;4.20;87.00;;;;;;4167049;28;20403;-56
2022/01/18 03:13:10;;;;;;;0.00;0.00;;;4.20;87.00;;;;;;4180845;28;20471;-55
2022/01/18 03:15:39;;;;;;;0.00;0.00;;;4.20;87.20;;;;;;4180029;28;20068;-56
2022/01/18 03:18:08;;;;;;;0.00;0.00;;;4.20;87.30;;;;;;4161687;28;20068;-60
2022/01/18 03:20:31;;;;;;;0.00;0.00;;;4.20;87.50;;;;;;4194283;28;20057;-58
2022/01/18 03:22:54;;;;;;;0.00;0.00;;;4.10;87.70;;;;;;4174796;28;20060;-58
2022/01/18 03:28:06;;;;;;;0.00;0.00;;;4.20;87.70;;;;;;4166299;28;20045;-59
2022/01/18 03:30:28;;;;;;;0.00;0.00;;;4.10;87.90;;;;;;4164592;28;20130;-59
2022/01/18 03:32:51;;;;;;;0.00;0.00;;;4.10;88.20;;;;;;4177155;28;20075;-59
2022/01/18 03:35:13;;;;;;;0.00;0.00;;;4.10;88.10;;;;;;4191967;28;20510;-60
2022/01/18 03:37:38;;;;;;;0.00;0.00;;;4.00;88.00;;;;;;4163890;28;20510;-59
2022/01/18 03:40:00;;;;;;;0.00;0.00;;;4.10;87.90;;;;;;4177968;28;20048;-58
2022/01/18 03:45:09;;;;;;;0.00;0.00;;;4.10;87.90;;;;;;4164027;28;20534;-57
2022/01/18 03:47:32;;;;;;;0.00;0.00;;;4.10;87.90;;;;;;4163760;28;20100;-51
2022/01/18 03:49:55;;;;;;;0.00;0.00;;;4.10;88.00;;;;;;4150355;28;20054;-53
2022/01/18 03:52:17;;;;;;;0.00;0.00;;;4.10;88.10;;;;;;4163437;28;20084;-57
2022/01/18 03:54:43;;;;;;;0.00;0.00;;;4.10;88.10;;;;;;4164087;28;20542;-55
2022/01/18 03:57:06;;;;;;;0.00;0.00;;;4.10;88.10;;;;;;4163962;28;20049;-53
2022/01/18 03:59:28;;;;;;;0.00;0.00;;;4.00;88.00;;;;;;4163363;28;20137;-56
2022/01/18 04:01:51;;;;;;;0.00;0.00;;;4.00;88.00;;;;;;4163517;28;20051;-58
2022/01/18 04:04:13;;;;;;;0.00;0.00;;;4.00;87.90;;;;;;4163082;28;20104;-60
2022/01/18 04:06:36;;;;;;;0.00;0.00;;;4.00;88.10;;;;;;4147704;28;20580;-60
2022/01/18 04:08:58;;;;;;;0.00;0.00;;;4.00;88.20;;;;;;4147225;28;20108;-59
2022/01/18 04:11:21;;;;;;;0.00;0.00;;;4.00;88.10;;;;;;4147117;28;20038;-60
2022/01/18 04:13:43;;;;;;;0.00;0.00;;;4.10;87.90;;;;;;4147209;28;20053;-59
2022/01/18 04:16:05;;;;;;;0.00;0.00;;;4.00;88.10;;;;;;4147144;28;20046;-59
2022/01/18 04:18:44;;;;;;;0.00;0.00;;;4.10;88.10;;;;;;4146772;28;20092;-59
2022/01/18 04:28:58;;;;;;;0.00;0.00;;;3.90;88.30;;;;;;4163305;28;20296;-58
2022/01/18 04:31:20;;;;;;;0.00;0.00;;;3.90;88.10;;;;;;4176913;28;20041;-59
2022/01/18 04:33:43;;;;;;;0.00;0.00;;;3.70;88.90;;;;;;4163135;28;20485;-59
2022/01/18 04:36:07;;;;;;;0.00;0.00;;;3.80;88.80;;;;;;4161344;28;20046;-60
2022/01/18 04:38:29;;;;;;;0.00;0.00;;;3.90;88.50;;;;;;4162903;28;20415;-59
2022/01/18 04:40:52;;;;;;;0.00;0.00;;;3.90;88.20;;;;;;4162939;28;20045;-59
2022/01/18 04:48:28;;;;;;;0.00;0.00;;;3.90;87.70;;;;;;4162463;28;20059;-59
2022/01/18 04:50:51;;;;;;;0.00;0.00;;;3.80;87.60;;;;;;4162733;28;20644;-58
2022/01/18 04:53:14;;;;;;;0.00;0.00;;;3.60;88.00;;;;;;4149225;28;20046;-59
2022/01/18 04:55:36;;;;;;;0.00;0.00;;;3.50;88.70;;;;;;4162900;28;20041;-59
2022/01/18 04:57:59;;;;;;;0.00;0.00;;;3.50;89.00;;;;;;4162863;28;20093;-59
2022/01/18 05:00:22;;;;;;;0.00;0.00;;;3.50;88.90;;;;;;4162463;28;20507;-59
2022/01/18 05:02:47;;;;;;;0.00;0.00;;;3.60;88.90;;;;;;4162768;28;20041;-59
2022/01/18 05:05:11;;;;;;;0.00;0.00;;;3.60;88.90;;;;;;4162892;28;20139;-59
2022/01/18 05:07:34;;;;;;;0.00;0.00;;;3.60;88.90;;;;;;4162665;28;20053;-59
2022/01/18 05:09:57;;;;;;;0.00;0.00;;;3.60;89.10;;;;;;4162669;28;20053;-59
2022/01/18 05:12:32;;;;;;;0.00;0.00;;;3.70;89.20;;;;;;4160959;28;20045;-61
2022/01/18 05:14:59;;;;;;;0.00;0.00;;;3.70;89.10;;;;;;4162684;28;20569;-59
2022/01/18 05:17:38;;;;;;;0.00;0.00;;;3.80;89.10;;;;;;4176468;28;20442;-60
2022/01/18 05:23:02;;;;;;;0.00;0.00;;;3.90;89.10;;;;;;4158108;28;20077;-59
2022/01/18 05:25:26;;;;;;;0.00;0.00;;;3.80;89.40;;;;;;4146336;28;20104;-60
2022/01/18 05:27:48;;;;;;;0.00;0.00;;;3.90;89.60;;;;;;4146364;28;20132;-59
2022/01/18 05:30:12;;;;;;;0.00;0.00;;;3.90;89.50;;;;;;4162231;28;20087;-60
2022/01/18 05:32:34;;;;;;;0.00;0.00;;;3.90;89.40;;;;;;4176740;28;20044;-60
2022/01/18 05:34:57;;;;;;;0.00;0.00;;;3.90;89.40;;;;;;4176483;28;20587;-59
2022/01/18 05:37:19;;;;;;;0.00;0.00;;;3.90;89.30;;;;;;4153191;28;20049;-60
2022/01/18 05:39:42;;;;;;;0.00;0.00;;;3.90;89.20;;;;;;4158555;28;20427;-53
2022/01/18 05:42:04;;;;;;;0.00;0.00;;;3.90;89.10;;;;;;4176082;28;20128;-60
2022/01/18 05:44:27;;;;;;;0.00;0.00;;;3.90;89.10;;;;;;4175858;28;20037;-57
2022/01/18 05:46:49;;;;;;;0.00;0.00;;;3.90;89.50;;;;;;4176306;28;20494;-58
2022/01/18 05:49:11;;;;;;;0.00;0.00;;;3.80;89.50;;;;;;4162281;28;20049;-59
2022/01/18 05:51:37;;;;;;;0.00;0.00;;;3.70;89.80;;;;;;4162080;28;20128;-60
2022/01/18 05:53:59;;;;;;;0.00;0.00;;;3.70;90.10;;;;;;4162307;28;20541;-59
2022/01/18 05:56:24;;;;;;;0.00;0.00;;;3.60;90.10;;;;;;4161889;28;20523;-59
2022/01/18 05:58:48;;;;;;;0.00;0.00;;;3.60;90.20;;;;;;4162149;28;20037;-59
2022/01/18 06:01:22;;;;;;;0.00;0.00;;;3.50;90.20;;;;;;4161999;28;20125;-59
2022/01/18 06:04:09;;;;;;;0.00;0.00;;;3.50;90.30;;;;;;4149495;28;20066;-58
2022/01/18 06:06:51;;;;;;;0.00;0.00;;;3.50;90.40;;;;;;4148172;28;20049;-58
2022/01/18 06:09:14;;;;;;;0.00;0.00;;;3.50;90.30;;;;;;4162058;28;20119;-55
2022/01/18 06:11:36;;;;;;;0.00;0.00;;;3.50;90.30;;;;;;4150238;28;20061;-58
2022/01/18 06:13:59;;;;;;;0.00;0.00;;;3.60;90.30;;;;;;4146811;28;20107;-58
2022/01/18 06:16:22;;;;;;;0.00;0.00;;;3.50;90.20;;;;;;4175257;28;20052;-59
2022/01/18 06:18:45;;;;;;;0.00;0.00;;;3.50;90.20;;;;;;4162006;28;20041;-57
2022/01/18 06:21:07;;;;;;;0.00;0.00;;;3.50;90.20;;;;;;4161634;28;20057;-57
2022/01/18 06:23:30;;;;;;;0.00;0.00;;;3.50;90.10;;;;;;4161382;28;20125;-56
2022/01/18 06:25:54;;;;;;;0.00;0.00;;;3.50;90.10;;;;;;4161944;28;20574;-58
2022/01/18 06:28:16;;;;;;;0.00;0.00;;;3.60;90.00;;;;;;4161159;28;20049;-59
2022/01/18 06:30:46;;;;;;;0.00;0.00;;;3.60;89.90;;;;;;4161498;28;20408;-60
2022/01/18 06:33:11;;;;;;;0.00;0.00;;;3.60;89.70;;;;;;4175157;28;20107;-59
2022/01/18 06:35:33;;;;;;;0.00;0.00;;;3.60;89.70;;;;;;4175616;28;20053;-58
2022/01/18 06:37:56;;;;;;;0.00;0.00;;;3.60;89.70;;;;;;4175648;28;20078;-59
2022/01/18 06:40:19;;;;;;;0.00;0.00;;;3.60;89.30;;;;;;4175137;28;20049;-59
2022/01/18 06:42:42;;;;;;;0.00;0.00;;;3.50;89.50;;;;;;4175543;28;20044;-58
2022/01/18 06:45:05;;;;;;;0.00;0.00;;;3.50;89.50;;;;;;4161830;28;20123;-58
2022/01/18 06:47:28;;;;;;;0.00;0.00;;;3.50;89.50;;;;;;4161133;28;20049;-56
2022/01/18 06:49:50;;;;;;;0.00;0.00;;;3.50;89.50;;;;;;4175477;28;20049;-59
2022/01/18 06:52:12;;;;;;;0.00;0.00;;;3.50;89.10;;;;;;4174929;28;20045;-59
2022/01/18 06:54:35;;;;;;;0.00;0.00;;;3.50;89.10;;;;;;4175699;28;20572;-61
2022/01/18 06:56:57;;;;;;;0.00;0.00;;;3.50;89.10;;;;;;4161656;28;20056;-54
2022/01/18 06:59:20;;;;;;;0.00;0.00;;;3.60;88.70;;;;;;4161762;28;20077;-58
2022/01/18 07:01:42;;;;;;;0.00;0.00;;;3.60;88.70;;;;;;4162810;28;20128;-59
2022/01/18 07:04:06;;;;;;;0.00;0.00;;;3.50;88.60;;;;;;4158989;28;20046;-57
2022/01/18 07:06:28;;;;;;;0.00;0.00;;;3.50;89.10;;;;;;4175029;28;20068;-60
2022/01/18 07:08:51;;;;;;;0.00;0.00;;;3.50;88.60;;;;;;4161449;28;20080;-60
2022/01/18 07:11:13;;;;;;;0.00;0.00;;;3.50;88.50;;;;;;4175122;28;20133;-60
2022/01/18 07:13:35;;;;;;;0.00;0.00;;;3.50;88.40;;;;;;4161419;28;20169;-59
2022/01/18 07:16:01;;;;;;;0.00;0.00;;;3.40;89.00;;;;;;4157865;28;20045;-59
2022/01/18 07:18:24;;;;;;;0.00;0.00;;;3.40;89.90;;;;;;4162214;28;20124;-59
2022/01/18 07:20:46;;;;;;;0.00;0.00;;;3.50;89.20;;;;;;4181168;28;20593;-60
2022/01/18 07:23:12;;;;;;;0.00;0.00;;;3.50;89.00;;;;;;4188614;28;20054;-60
2022/01/18 07:25:36;;;;;;;0.00;0.00;;;3.60;88.90;;;;;;4175218;28;20079;-60
2022/01/18 07:27:58;;;;;;;0.00;0.00;;;3.60;88.70;;;;;;4174965;28;20033;-56
2022/01/18 07:30:21;;;;;;;0.00;0.00;;;3.60;88.70;;;;;;4161062;28;20049;-58
2022/01/18 07:32:46;;;;;;;0.00;0.00;;;3.60;88.50;;;;;;4181033;28;20064;-57
2022/01/18 07:35:11;;;;;;;0.00;0.00;;;3.60;88.30;;;;;;4162159;28;20052;-59
2022/01/18 07:37:33;;;;;;;0.00;0.00;;;3.60;88.30;;;;;;4166709;28;20116;-56
2022/01/18 07:39:56;;;;;;;0.00;0.00;;;3.60;88.50;;;;;;4147427;28;20050;-60
2022/01/18 07:42:20;;;;;;;0.00;0.00;;;3.60;88.80;;;;;;4162559;28;20045;-60
2022/01/18 07:44:42;;;;;;;0.00;0.00;;;3.60;90.20;;;;;;4178257;28;20136;-61
2022/01/18 07:47:05;;;;;;;0.00;0.00;;;3.60;90.20;;;;;;4174420;28;20052;-60
2022/01/18 07:49:28;;;;;;;0.00;0.00;;;3.70;90.40;;;;;;4178752;28;20045;-59
2022/01/18 07:51:50;;;;;;;0.00;0.00;;;3.80;90.70;;;;;;4165389;28;20073;-59
2022/01/18 07:54:13;;;;;;;0.00;0.00;;;3.80;90.80;;;;;;4185864;28;20090;-59
2022/01/18 07:56:35;;;;;;;0.00;0.00;;;3.80;90.90;;;;;;4164063;28;20042;-58
2022/01/18 07:59:07;;;;;;;;;;;3.90;91.20;;;;;;4164084;28;20116;-58
2022/01/18 08:01:29;;;;;;;0.00;0.00;;;4.10;91.20;;;;;;4163717;28;19921;-58
2022/01/18 08:03:52;;;;;;;0.00;0.00;;;4.20;90.90;;;;;;4173186;28;20041;-53
2022/01/18 08:06:15;;;;;;;0.00;0.00;;;4.30;90.80;;;;;;4162826;28;20109;-59
2022/01/18 08:08:39;;;;;;;0.00;0.00;;;4.30;90.80;;;;;;4147301;28;20049;-56
2022/01/18 08:11:02;;;;;;;0.00;0.00;;;4.40;91.00;;;;;;4120573;28;20046;-56
2022/01/18 08:13:34;;;;;;;0.00;0.00;;;4.40;90.60;;;;;;4157334;28;20140;-55
2022/01/18 08:16:09;;;;;;;0.00;0.00;;;4.40;90.70;;;;;;4192474;28;20488;-63
2022/01/18 08:18:32;;;;;;;0.00;0.00;;;4.30;90.70;;;;;;4179487;28;20537;-58
2022/01/18 08:20:56;;;;;;;0.00;0.00;;;4.40;90.90;;;;;;4179783;28;20599;-59
2022/01/18 08:23:19;;;;;;;0.00;0.00;;;4.20;90.80;;;;;;4180139;28;20465;-59
2022/01/18 08:25:41;;;;;;;0.00;0.00;;;4.30;91.20;;;;;;4179781;28;20049;-59
2022/01/18 08:28:04;;;;;;;0.00;0.00;;;4.40;91.10;;;;;;4164254;28;20050;-59
2022/01/18 08:30:27;;;;;;;0.00;0.00;;;4.40;90.90;;;;;;4179554;28;20059;-59
2022/01/18 08:32:54;;;;;;;0.00;0.00;;;4.50;91.10;;;;;;4174119;28;20045;-59
2022/01/18 08:35:17;;;;;;;0.00;0.00;;;4.70;91.10;;;;;;4172333;28;20045;-56
2022/01/18 08:37:40;;;;;;;0.00;0.00;;;4.80;90.90;;;;;;4167400;28;20080;-59
2022/01/18 08:40:04;;;;;;;0.00;0.00;;;4.80;90.80;;;;;;4163183;28;20063;-52
2022/01/18 08:42:26;;;;;;;0.00;0.00;;;4.80;90.70;;;;;;4164800;28;20049;-57
2022/01/18 08:44:49;;;;;;;0.00;0.00;;;4.90;90.80;;;;;;4178859;28;20049;-59
2022/01/18 08:47:14;;;;;;;0.00;0.00;;;5.30;90.70;;;;;;4176493;28;20542;-59
2022/01/18 08:49:36;;;;;;;0.00;0.00;;;5.90;90.30;;;;;;4163004;28;20068;-58
2022/01/18 08:51:59;;;;;;;0.00;0.00;;;6.40;89.10;;;;;;4162820;28;20112;-58
2022/01/18 08:54:21;;;;;;;0.00;0.00;;;6.60;87.90;;;;;;4184564;28;20052;-58
2022/01/18 08:56:44;;;;;;;0.00;0.00;;;6.80;86.90;;;;;;4209928;28;20082;-55
2022/01/18 08:59:22;;;;;;;0.00;0.00;;;7.10;85.70;;;;;;4209977;28;20751;-58
2022/01/18 09:01:44;;;;;;;0.00;0.00;;;7.20;84.70;;;;;;4195607;28;20139;-59
2022/01/18 09:04:07;;;;;;;0.00;0.00;;;7.10;85.40;;;;;;4179395;28;20049;-59
2022/01/18 09:06:31;;;;;;;0.00;0.00;;;7.40;84.80;;;;;;4164666;28;20121;-58
2022/01/18 09:08:57;;;;;;;0.00;0.00;;;7.50;84.10;;;;;;4179330;28;20038;-57
2022/01/18 09:11:19;;;;;;;0.00;0.00;;;7.60;83.80;;;;;;4179049;28;20055;-58
2022/01/18 09:13:42;;;;;;;0.00;0.00;;;7.70;83.60;;;;;;4179288;28;20049;-60
2022/01/18 09:16:06;;;;;;;0.00;0.00;;;7.70;82.40;;;;;;4192833;28;20060;-58
2022/01/18 09:18:28;;;;;;;0.00;0.00;;;7.50;82.60;;;;;;4178521;28;20135;-60
2022/01/18 09:20:51;;;;;;;0.00;0.00;;;7.70;82.80;;;;;;4175854;28;20049;-60
2022/01/18 09:23:14;;;;;;;0.00;0.00;;;8.00;82.10;;;;;;4162549;28;20049;-58
2022/01/18 09:25:36;;;;;;;0.00;0.00;;;7.90;81.00;;;;;;4164487;28;20049;-60
2022/01/18 09:27:59;;;;;;;0.00;0.00;;;7.80;81.50;;;;;;4159956;28;20056;-60
2022/01/18 09:30:26;;;;;;;0.00;0.00;;;7.80;81.70;;;;;;4160873;28;20143;-60
2022/01/18 09:32:49;;;;;;;0.00;0.00;;;8.00;81.50;;;;;;4162256;28;20045;-59
2022/01/18 09:35:13;;;;;;;0.00;0.00;;;8.20;79.40;;;;;;4176302;28;20052;-60
2022/01/18 09:37:36;;;;;;;0.00;0.00;;;8.60;79.00;;;;;;4176025;28;20388;-59
2022/01/18 09:39:59;;;;;;;0.00;0.00;;;8.80;78.20;;;;;;4176017;28;20465;-59
2022/01/18 09:42:31;;;;;;;0.00;0.00;;;8.90;77.90;;;;;;4161640;28;20045;-59
2022/01/18 09:44:54;;;;;;;0.00;0.00;;;9.30;77.40;;;;;;4176349;28;20074;-60
2022/01/18 09:47:16;;;;;;;0.00;0.00;;;9.70;75.90;;;;;;4178309;28;20049;-59
2022/01/18 09:49:39;;;;;;;0.00;0.00;;;9.90;74.50;;;;;;4178338;28;20106;-58
2022/01/18 09:52:02;;;;;;;0.00;0.00;;;9.80;73.20;;;;;;4178354;28;20481;-59
2022/01/18 09:54:24;;;;;;;0.00;0.00;;;9.40;74.70;;;;;;4189595;28;20086;-60
2022/01/18 09:56:47;;;;;;;0.00;0.00;;;9.30;74.50;;;;;;4194834;28;20107;-61
2022/01/18 09:59:09;;;;;;;0.00;0.00;;;9.60;73.70;;;;;;4208927;28;20040;-60
2022/01/18 10:01:31;;;;;;;0.00;0.00;;;10.20;72.00;;;;;;4188670;28;20068;-61
2022/01/18 10:04:17;;;;;;;0.00;0.00;;;10.70;70.90;;;;;;4148497;28;20135;-61
2022/01/18 10:06:41;;;;;;;0.00;0.00;;;10.90;69.00;;;;;;4153079;28;20670;-59
2022/01/18 10:09:13;;;;;;;0.00;0.00;;;11.10;68.20;;;;;;4178395;28;20059;-59
2022/01/18 10:11:35;;;;;;;0.00;0.00;;;11.50;66.50;;;;;;4166111;28;20434;-60
2022/01/18 10:13:58;;;;;;;0.00;0.00;;;12.00;65.50;;;;;;4175678;28;20071;-60
2022/01/18 10:16:23;;;;;;;0.00;0.00;;;12.20;64.00;;;;;;4162400;28;20128;-60
2022/01/18 10:18:49;;;;;;;0.00;0.00;;;12.50;63.80;;;;;;4173439;28;20100;-60
2022/01/18 10:21:15;;;;;;;0.00;0.00;;;13.00;63.20;;;;;;4169815;28;20045;-60
2022/01/18 10:23:38;;;;;;;0.00;0.00;;;13.20;60.80;;;;;;4178265;28;20142;-60
2022/01/18 10:26:25;;;;;;;0.00;0.00;;;12.40;61.00;;;;;;4164188;28;20079;-60
2022/01/18 10:28:59;;;;;;;0.00;0.00;;;12.80;61.60;;;;;;4152712;28;20044;-60
2022/01/18 10:31:34;;;;;;;0.00;0.00;;;13.20;59.80;;;;;;4176342;28;20064;-59
2022/01/18 10:34:41;;;;;;;0.00;0.00;;;12.90;59.00;;;;;;4191640;28;20048;-59
2022/01/18 10:37:05;;;;;;;0.00;0.00;;;13.20;58.60;;;;;;4166954;28;20059;-59
2022/01/18 10:39:35;;;;;;;0.00;0.00;;;13.40;58.20;;;;;;4166968;28;20056;-59
2022/01/18 10:41:57;;;;;;;0.00;0.00;;;13.10;56.60;;;;;;4203800;28;20050;-59
2022/01/18 10:44:20;;;;;;;0.00;0.00;;;13.00;57.80;;;;;;4177776;28;20103;-59
2022/01/18 10:46:47;;;;;;;0.00;0.00;;;13.50;57.60;;;;;;4164107;28;20049;-59
2022/01/18 10:49:10;;;;;;;0.00;0.00;;;13.90;56.50;;;;;;4178026;28;20081;-59
2022/01/18 10:51:35;;;;;;;0.00;0.00;;;14.40;54.90;;;;;;4177647;28;20080;-59
2022/01/18 10:54:04;;;;;;;0.00;0.00;;;14.70;53.90;;;;;;4192079;28;20047;-59
2022/01/18 10:56:41;;;;;;;0.00;0.00;;;14.30;53.10;;;;;;4177530;28;20087;-59
2022/01/18 10:59:03;;;;;;;0.00;0.00;;;14.60;53.50;;;;;;4177990;28;20064;-59
2022/01/18 11:01:26;;;;;;;0.00;0.00;;;14.80;52.30;;;;;;4177752;28;20052;-59
2022/01/18 11:04:19;;;;;;;0.00;0.00;;;14.90;52.10;;;;;;4178121;28;20493;-59
2022/01/18 11:06:59;;;;;;;0.00;0.00;;;15.10;52.20;;;;;;4177464;28;20155;-59
2022/01/18 11:09:24;;;;;;;0.00;0.00;;;15.00;51.00;;;;;;4179042;28;20580;-59
2022/01/18 11:11:48;;;;;;;0.00;0.00;;;14.50;50.90;;;;;;4180726;28;20463;-59
2022/01/18 11:14:13;;;;;;;0.00;0.00;;;14.50;51.60;;;;;;4181236;28;20037;-59
2022/01/18 11:16:41;;;;;;;0.00;0.00;;;14.40;51.50;;;;;;4180694;28;20492;-59
2022/01/18 11:19:07;;;;;;;0.00;0.00;;;14.30;51.90;;;;;;4181051;28;20109;-59
2022/01/18 11:21:29;;;;;;;0.00;0.00;;;14.20;51.40;;;;;;4180799;28;20053;-59
2022/01/18 11:23:54;;;;;;;0.00;0.00;;;14.70;51.10;;;;;;4180916;28;20067;-59
2022/01/18 11:26:19;;;;;;;0.00;0.00;;;15.10;50.10;;;;;;4180281;28;20041;-59
2022/01/18 11:28:42;;;;;;;0.00;0.00;;;15.60;48.90;;;;;;4167158;28;20049;-59
2022/01/18 11:31:10;;;;;;;0.00;0.00;;;15.90;48.10;;;;;;4180793;28;20051;-59
2022/01/18 11:33:37;;;;;;;0.00;0.00;;;15.90;47.60;;;;;;4194665;28;20098;-59
2022/01/18 11:36:11;;;;;;;0.00;0.00;;;15.90;46.90;;;;;;4194566;28;20514;-59
2022/01/18 11:39:07;;;;;;;0.00;0.00;;;16.10;47.20;;;;;;4166868;28;20131;-59
2022/01/18 11:41:34;;;;;;;0.00;0.00;;;16.10;46.10;;;;;;4130257;28;20133;-59
2022/01/18 11:43:59;;;;;;;0.00;0.00;;;15.60;45.40;;;;;;4117012;28;20528;-59
2022/01/18 11:46:40;;;;;;;0.00;0.00;;;15.00;46.60;;;;;;4116551;28;20516;-59
2022/01/18 11:49:16;;;;;;;0.00;0.00;;;14.40;47.50;;;;;;4116952;28;20050;-59
2022/01/18 11:51:49;;;;;;;0.00;0.00;;;13.40;48.60;;;;;;4116341;28;19929;-58
2022/01/18 11:54:29;;;;;;;0.00;0.00;;;12.20;50.70;;;;;;4127892;28;20050;-58
2022/01/18 11:56:52;;;;;;;0.00;0.00;;;11.70;52.50;;;;;;4158991;28;20052;-58
2022/01/18 11:59:28;;;;;;;0.00;0.00;;;11.50;53.40;;;;;;4131883;28;20434;-60
2022/01/18 12:01:58;;;;;;;0.00;0.00;;;11.20;54.70;;;;;;4145698;28;20046;-58
2022/01/18 12:04:59;;;;;;;0.00;0.00;;;10.60;55.80;;;;;;4132533;28;20081;-59
2022/01/18 12:07:34;;;;;;;0.00;0.00;;;10.10;57.70;;;;;;4129925;28;20112;-59
2022/01/18 12:09:57;;;;;;;0.00;0.00;;;10.20;58.10;;;;;;4116607;28;20050;-59
2022/01/18 12:12:46;;;;;;;0.00;0.00;;;9.50;62.50;;;;;;4115673;28;20051;-59
2022/01/18 12:15:26;;;;;;;0.00;0.00;;;9.30;64.10;;;;;;4123858;28;20062;-59
2022/01/18 12:17:57;;;;;;;0.00;0.00;;;9.60;64.00;;;;;;4156691;28;20478;-59
2022/01/18 12:20:44;;;;;;;0.00;0.00;;;9.50;64.20;;;;;;4163066;28;20052;-59
2022/01/18 12:23:17;;;;;;;0.00;0.00;;;9.80;62.50;;;;;;4176975;28;20064;-59
2022/01/18 12:25:56;;;;;;;0.00;0.00;;;9.60;60.70;;;;;;4163375;28;20581;-59
2022/01/18 12:34:29;;;;;;;0.00;0.00;;;9.00;62.20;;;;;;4163116;28;20507;-59
2022/01/18 12:36:53;;;;;;;0.00;0.00;;;8.80;62.70;;;;;;4152037;28;20079;-60
2022/01/18 12:39:17;;;;;;;0.00;0.00;;;8.70;63.10;;;;;;4177140;28;20053;-60
2022/01/18 12:41:40;;;;;;;0.00;0.00;;;8.60;63.90;;;;;;4162918;28;20049;-59
2022/01/18 12:44:21;;;;;;;0.00;0.00;;;8.50;65.30;;;;;;4177057;28;20041;-59
2022/01/18 12:46:52;;;;;;;0.00;0.00;;;8.30;65.60;;;;;;4162632;28;20096;-60
2022/01/18 12:49:16;;;;;;;0.00;0.00;;;8.30;65.80;;;;;;4177210;28;20084;-59
2022/01/18 12:51:59;;;;;;;0.00;0.00;;;8.40;66.20;;;;;;4176559;28;20077;-59
2022/01/18 12:54:39;;;;;;;0.00;0.00;;;8.40;66.10;;;;;;4160879;28;20412;-59
2022/01/18 12:57:16;;;;;;;0.00;0.00;;;8.60;65.80;;;;;;4132959;28;20133;-59
2022/01/18 12:59:59;;;;;;;0.00;0.00;;;8.90;65.30;;;;;;4159277;28;20546;-60
2022/01/18 13:02:21;;;;;;;;;;;8.20;66.80;;;;;;4163864;28;20127;-60
2022/01/18 13:05:05;;;;;;;0.00;0.00;;;8.00;67.70;;;;;;4163153;28;19975;-59
2022/01/18 13:07:28;;;;;;;0.00;0.00;;;8.10;67.80;;;;;;4146295;28;20121;-59
2022/01/18 13:10:09;;;;;;;0.00;0.00;;;8.00;67.90;;;;;;4173917;28;20132;-59
2022/01/18 13:12:33;;;;;;;0.00;0.00;;;8.20;68.10;;;;;;4138502;28;20053;-59
2022/01/18 13:14:57;;;;;;;0.00;0.00;;;8.20;68.10;;;;;;4162863;28;20489;-60
2022/01/18 13:23:03;;;;;;;0.00;0.00;;;8.30;68.70;;;;;;4162559;28;20049;-59
2022/01/18 13:25:25;;;;;;;0.00;0.00;;;8.30;69.00;;;;;;4162593;28;20061;-59
2022/01/18 13:27:51;;;;;;;0.00;0.00;;;8.40;69.20;;;;;;4162250;28;20133;-59
2022/01/18 13:30:20;;;;;;;0.00;0.00;;;8.40;69.00;;;;;;4175993;28;20041;-57
2022/01/18 13:32:43;;;;;;;0.00;0.00;;;8.40;69.10;;;;;;4165071;28;20128;-58
2022/01/18 13:35:07;;;;;;;0.00;0.00;;;8.40;68.90;;;;;;4162306;28;20053;-58
2022/01/18 13:37:35;;;;;;;0.00;0.00;;;8.40;69.40;;;;;;4162208;28;20124;-58
2022/01/18 13:40:15;;;;;;;0.00;0.00;;;8.30;69.90;;;;;;4162324;28;20057;-56
2022/01/18 13:42:42;;;;;;;0.00;0.00;;;8.20;70.00;;;;;;4161898;28;20067;-57
2022/01/18 13:45:07;;;;;;;0.00;0.00;;;8.30;69.80;;;;;;4162247;28;20057;-58
2022/01/18 13:47:44;;;;;;;0.00;0.00;;;8.40;69.90;;;;;;4175832;28;20052;-57
2022/01/18 13:50:26;;;;;;;0.00;0.00;;;8.50;70.00;;;;;;4162228;28;20554;-59
2022/01/18 13:53:16;;;;;;;0.00;0.00;;;8.50;70.00;;;;;;4161797;28;20049;-57
2022/01/18 13:55:49;;;;;;;0.00;0.00;;;8.60;70.00;;;;;;4175933;28;20091;-58
2022/01/18 13:58:11;;;;;;;0.00;0.00;;;8.60;70.20;;;;;;4161761;28;20107;-58
2022/01/18 14:00:34;;;;;;;0.00;0.00;;;8.70;69.90;;;;;;4161960;28;20057;-62
2022/01/18 14:02:58;;;;;;;0.00;0.00;;;8.60;70.00;;;;;;4161843;28;20057;-58
2022/01/18 14:05:21;;;;;;;0.00;0.00;;;8.50;69.90;;;;;;4163787;28;20052;-58
2022/01/18 14:07:44;;;;;;;0.00;0.00;;;8.50;70.20;;;;;;4192039;28;20047;-58
2022/01/18 14:10:07;;;;;;;0.00;0.00;;;8.20;70.50;;;;;;4178344;28;20056;-57
2022/01/18 14:12:31;;;;;;;0.00;0.00;;;8.10;71.50;;;;;;4177206;28;20049;-59